ROMD(METAR)
12/11 16:00
ROMD 110700Z 12008KT 9999 RA BKN009 23/21 Q1014 RMK A2995=
戻る
トップページへ戻る
IMOC Co,.Ltd.